Time;durP1;ratioP1;P1;durP2;ratioP2;P2;SDS_P1;SDS_P2;PMS_P1;PMS_P2;Temp;Humidity;BMP_temperature;BMP_pressure;BME280_temperature;BME280_humidity;BME280_pressure;Samples;Min_cycle;Max_cycle;Signal;HPM_P1;HPM_P2
2024/04/06 00:00:03;;;;;;;;;;;;;;;14.96;100.00;97774.28;5068835;28;20244;-48
2024/04/06 00:02:28;;;;;;;;;;;;;;;14.91;100.00;97771.19;5064158;28;19916;-47
2024/04/06 00:04:56;;;;;;;;;;;;;;;14.85;100.00;97769.88;5069870;28;20384;-47
2024/04/06 00:07:22;;;;;;;;;;;;;;;14.69;100.00;97758.88;5061053;28;20377;-48
2024/04/06 00:09:47;;;;;;;;;;;;;;;14.78;100.00;97765.22;5063630;28;19947;-47
2024/04/06 00:12:13;;;;;;;;;;;;;;;14.72;100.00;97765.69;5068236;28;20357;-48
2024/04/06 00:14:38;;;;;;;;;;;;;;;14.70;100.00;97767.59;5069327;28;20007;-47
2024/04/06 00:17:03;;;;;;;;;;;;;;;14.53;100.00;97770.63;5059566;28;19952;-47
2024/04/06 00:19:29;;;;;;;;;;;;;;;14.65;100.00;97764.47;5064310;28;20003;-47
2024/04/06 00:21:55;;;;;;;;;;;;;;;14.69;100.00;97761.50;5067303;28;19930;-47
2024/04/06 00:24:20;;;;;;;;;;;;;;;14.73;100.00;97759.47;5058817;28;19928;-48
2024/04/06 00:26:45;;;;;;;;;;;;;;;14.56;100.00;97765.19;5062294;28;19923;-47
2024/04/06 00:29:11;;;;;;;;;;;;;;;14.48;100.00;97768.38;5070664;28;20271;-46
2024/04/06 00:31:36;;;;;;;;;;;;;;;14.54;100.00;97767.06;5068346;28;19952;-47
2024/04/06 00:34:02;;;;;;;;;;;;;;;14.33;100.00;97766.06;5064491;28;19992;-47
2024/04/06 00:36:31;;;;;;;;;;;;;;;14.24;100.00;97766.78;5067024;28;19959;-47
2024/04/06 00:38:56;;;;;;;;;;;;;;;14.67;100.00;97762.56;5064767;28;19936;-45
2024/04/06 00:41:21;;;;;;;;;;;;;;;14.24;100.00;97766.78;5065342;28;20358;-47
2024/04/06 00:43:47;;;;;;;;;;;;;;;14.10;100.00;97772.16;5064156;28;20465;-46
2024/04/06 00:46:12;;;;;;;;;;;;;;;14.19;100.00;97767.13;5064503;28;19922;-48
2024/04/06 00:48:38;;;;;;;;;;;;;;;14.09;100.00;97765.25;5068153;28;20320;-47
2024/04/06 00:51:05;;;;;;;;;;;;;;;14.14;100.00;97769.19;5069446;28;19953;-47
2024/04/06 00:53:31;;;;;;;;;;;;;;;14.14;100.00;97773.59;5059268;28;19958;-48
2024/04/06 00:55:57;;;;;;;;;;;;;;;13.92;100.00;97773.50;5061435;28;19926;-48
2024/04/06 00:58:22;;;;;;;;;;;;;;;13.85;100.00;97773.13;5057265;28;19923;-47
2024/04/06 01:00:48;;;;;;;;;;;;;;;13.93;100.00;97781.25;5065559;28;19967;-48
2024/04/06 01:03:13;;;;;;;;;;;;;;;13.83;100.00;97784.66;5061673;28;19977;-47
2024/04/06 01:05:38;;;;;;;;;;;;;;;13.80;100.00;97784.84;5067725;28;20314;-50
2024/04/06 01:08:03;;;;;;;;;;;;;;;13.58;100.00;97779.50;5068796;28;20267;-47
2024/04/06 01:10:29;;;;;;;;;;;;;;;13.53;100.00;97784.22;5067263;28;20279;-47
2024/04/06 01:12:54;;;;;;;;;;;;;;;13.53;100.00;97785.06;5069932;28;19931;-48
2024/04/06 01:15:19;;;;;;;;;;;;;;;13.27;100.00;97785.22;5058388;28;19948;-47
2024/04/06 01:17:44;;;;;;;;;;;;;;;13.21;100.00;97775.22;5062483;28;19926;-47
2024/04/06 01:20:11;;;;;;;;;;;;;;;13.15;100.00;97786.09;5065409;28;19954;-48
2024/04/06 01:22:36;;;;;;;;;;;;;;;13.27;100.00;97785.22;5068509;28;19973;-47
2024/04/06 01:25:04;;;;;;;;;;;;;;;13.06;100.00;97773.69;5061604;28;20016;-48
2024/04/06 01:27:29;;;;;;;;;;;;;;;12.89;100.00;97769.59;5061889;28;19943;-50
2024/04/06 01:29:54;;;;;;;;;;;;;;;13.11;100.00;97774.19;5065699;28;19942;-48
2024/04/06 01:32:19;;;;;;;;;;;;;;;12.85;100.00;97785.59;5064006;28;19970;-48
2024/04/06 01:34:45;;;;;;;;;;;;;;;12.94;100.00;97784.94;5063121;28;20484;-48
2024/04/06 01:37:10;;;;;;;;;;;;;;;12.93;100.00;97780.66;5066006;28;20013;-47
2024/04/06 01:39:35;;;;;;;;;;;;;;;12.67;100.00;97794.66;5067863;28;19995;-47
2024/04/06 01:42:00;;;;;;;;;;;;;;;12.78;100.00;97781.72;5061591;28;20011;-47
2024/04/06 01:44:26;;;;;;;;;;;;;;;12.64;100.00;97782.66;5061043;28;19924;-47
2024/04/06 01:46:51;;;;;;;;;;;;;;;12.84;100.00;97789.97;5063461;28;19976;-46
2024/04/06 01:49:16;;;;;;;;;;;;;;;12.55;100.00;97791.09;5066871;28;19938;-47
2024/04/06 01:51:41;;;;;;;;;;;;;;;12.48;100.00;97784.63;5062315;28;19928;-47
2024/04/06 01:54:06;;;;;;;;;;;;;;;12.57;100.00;97791.00;5067909;28;19975;-49
2024/04/06 01:56:32;;;;;;;;;;;;;;;12.48;100.00;97789.84;5061283;28;19916;-46
2024/04/06 01:58:57;;;;;;;;;;;;;;;12.66;100.00;97790.38;5070244;28;19931;-48
2024/04/06 02:01:22;;;;;;;;;;;;;;;12.45;100.00;97784.00;5058283;28;19923;-47
2024/04/06 02:03:47;;;;;;;;;;;;;;;12.49;100.00;97781.06;5066723;28;20332;-47
2024/04/06 02:06:12;;;;;;;;;;;;;;;12.49;100.00;97769.78;5061452;28;19915;-47
2024/04/06 02:08:38;;;;;;;;;;;;;;;12.40;100.00;97783.47;5065920;28;19932;-49
2024/04/06 02:11:03;;;;;;;;;;;;;;;12.49;100.00;97781.06;5064391;28;19917;-47
2024/04/06 02:13:28;;;;;;;;;;;;;;;12.28;100.00;97781.66;5066253;28;20296;-47
2024/04/06 02:15:57;;;;;;;;;;;;;;;12.37;100.00;97781.06;5067541;28;19939;-47
2024/04/06 02:18:22;;;;;;;;;;;;;;;12.05;100.00;97774.53;5068382;28;19913;-47
2024/04/06 02:20:47;;;;;;;;;;;;;;;11.84;100.00;97775.94;5061639;28;21496;-47
2024/04/06 02:23:13;;;;;;;;;;;;;;;11.85;100.00;97775.81;5059559;28;19923;-46
2024/04/06 02:25:38;;;;;;;;;;;;;;;11.90;100.00;97776.38;5066700;28;19967;-47
2024/04/06 02:28:04;;;;;;;;;;;;;;;11.90;100.00;97772.94;5058970;28;19923;-49
2024/04/06 02:30:30;;;;;;;;;;;;;;;11.73;100.00;97770.56;5063391;28;20007;-47
2024/04/06 02:32:55;;;;;;;;;;;;;;;11.68;100.00;97781.31;5067687;28;19976;-47
2024/04/06 02:35:21;;;;;;;;;;;;;;;11.81;100.00;97776.13;5064856;28;19948;-46
2024/04/06 02:37:46;;;;;;;;;;;;;;;11.78;100.00;97781.56;5063575;28;20021;-47
2024/04/06 02:40:13;;;;;;;;;;;;;;;11.84;100.00;97781.16;5065249;28;19949;-47
2024/04/06 02:42:38;;;;;;;;;;;;;;;11.86;100.00;97780.13;5065348;28;19933;-49
2024/04/06 02:45:04;;;;;;;;;;;;;;;11.53;100.00;97777.03;5064074;28;19943;-47
2024/04/06 02:47:29;;;;;;;;;;;;;;;11.69;100.00;97771.69;5064647;28;19913;-48
2024/04/06 02:49:55;;;;;;;;;;;;;;;11.74;100.00;97780.91;5071939;28;19943;-49
2024/04/06 02:52:20;;;;;;;;;;;;;;;11.83;100.00;97769.06;5071072;28;19947;-49
2024/04/06 02:54:45;;;;;;;;;;;;;;;11.62;100.00;97771.25;5070105;28;19978;-45
2024/04/06 02:57:10;;;;;;;;;;;;;;;11.90;100.00;97780.75;5060725;28;19976;-45
2024/04/06 02:59:35;;;;;;;;;;;;;;;11.94;100.00;97775.25;5067462;28;19992;-46
2024/04/06 03:02:01;;;;;;;;;;;;;;;11.93;100.00;97770.13;5067482;28;19913;-45
2024/04/06 03:04:26;;;;;;;;;;;;;;;11.96;100.00;97759.50;5068984;28;19948;-46
2024/04/06 03:06:51;;;;;;;;;;;;;;;11.95;100.00;97768.25;5066924;28;19945;-46
2024/04/06 03:09:18;;;;;;;;;;;;;;;11.86;100.00;97768.84;5069948;28;19976;-45
2024/04/06 03:11:44;;;;;;;;;;;;;;;11.77;100.00;97779.88;5066361;28;19937;-45
2024/04/06 03:14:10;;;;;;;;;;;;;;;11.74;100.00;97780.06;5066014;28;19966;-47
2024/04/06 03:16:35;;;;;;;;;;;;;;;11.62;100.00;97779.09;5067514;28;19944;-47
2024/04/06 03:19:00;;;;;;;;;;;;;;;11.76;100.00;97779.03;5071624;28;19963;-46
2024/04/06 03:21:25;;;;;;;;;;;;;;;11.72;100.00;97781.94;5067936;28;19990;-46
2024/04/06 03:23:51;;;;;;;;;;;;;;;11.68;100.00;97788.28;5062891;28;20037;-45
2024/04/06 03:26:16;;;;;;;;;;;;;;;11.42;100.00;97789.06;5066939;28;20002;-46
2024/04/06 03:28:41;;;;;;;;;;;;;;;11.39;100.00;97794.47;5065790;28;19948;-45
2024/04/06 03:31:06;;;;;;;;;;;;;;;11.34;100.00;97794.75;5064446;28;19921;-45
2024/04/06 03:33:31;;;;;;;;;;;;;;;11.39;100.00;97784.06;5060106;28;20255;-46
2024/04/06 03:35:57;;;;;;;;;;;;;;;11.30;100.00;97795.06;5062989;28;20351;-45
2024/04/06 03:38:22;;;;;;;;;;;;;;;11.34;100.00;97786.09;5062851;28;19935;-46
2024/04/06 03:40:47;;;;;;;;;;;;;;;11.22;100.00;97792.06;5066129;28;19936;-45
2024/04/06 03:43:12;;;;;;;;;;;;;;;11.31;100.00;97788.91;5063420;28;19935;-45
2024/04/06 03:45:37;;;;;;;;;;;;;;;11.20;100.00;97788.72;5066648;28;19939;-45
2024/04/06 03:48:03;;;;;;;;;;;;;;;11.32;100.00;97787.97;5058910;28;19952;-45
2024/04/06 03:50:28;;;;;;;;;;;;;;;11.23;100.00;97788.56;5067420;28;19968;-45
2024/04/06 03:52:54;;;;;;;;;;;;;;;11.22;100.00;97781.66;5068429;28;19923;-45
2024/04/06 03:55:19;;;;;;;;;;;;;;;11.10;100.00;97783.25;5066152;28;19935;-46
2024/04/06 03:57:45;;;;;;;;;;;;;;;11.10;100.00;97783.25;5057463;28;19953;-45
2024/04/06 04:00:13;;;;;;;;;;;;;;;11.19;100.00;97787.06;5063814;28;19913;-46
2024/04/06 04:02:39;;;;;;;;;;;;;;;11.11;100.00;97784.09;5060811;28;19927;-47
2024/04/06 04:05:04;;;;;;;;;;;;;;;11.02;100.00;97784.66;5062340;28;19916;-46
2024/04/06 04:07:33;;;;;;;;;;;;;;;10.88;100.00;97777.69;5061266;28;19931;-48
2024/04/06 04:10:01;;;;;;;;;;;;;;;10.97;100.00;97765.88;5062390;28;20013;-46
2024/04/06 04:12:26;;;;;;;;;;;;;;;10.79;100.00;97774.81;5065954;28;19924;-47
2024/04/06 04:14:52;;;;;;;;;;;;;;;10.90;100.00;97785.41;5065565;28;19913;-45
2024/04/06 04:17:18;;;;;;;;;;;;;;;10.82;100.00;97786.81;5060556;28;20362;-45
2024/04/06 04:19:43;;;;;;;;;;;;;;;10.54;100.00;97789.41;5065334;28;20021;-45
2024/04/06 04:22:08;;;;;;;;;;;;;;;10.78;100.00;97791.38;5063539;28;19959;-46
2024/04/06 04:24:34;;;;;;;;;;;;;;;10.64;100.00;97793.97;5064584;28;19970;-46
2024/04/06 04:26:59;;;;;;;;;;;;;;;10.62;100.00;97790.59;5060328;28;20362;-46
2024/04/06 04:29:24;;;;;;;;;;;;;;;10.55;100.00;97778.88;5070368;28;19945;-46
2024/04/06 04:31:49;;;;;;;;;;;;;;;10.46;100.00;97784.63;5071849;28;19976;-45
2024/04/06 04:34:15;;;;;;;;;;;;;;;10.67;100.00;97785.13;5067521;28;19916;-46
2024/04/06 04:36:40;;;;;;;;;;;;;;;10.50;100.00;97791.34;5060743;28;19924;-47
2024/04/06 04:39:05;;;;;;;;;;;;;;;10.59;100.00;97795.16;5063575;28;19937;-45
2024/04/06 04:41:31;;;;;;;;;;;;;;;10.55;100.00;97802.28;5068210;28;19924;-47
2024/04/06 04:43:56;;;;;;;;;;;;;;;10.43;100.00;97804.78;5063814;28;19943;-47
2024/04/06 04:46:21;;;;;;;;;;;;;;;10.39;100.00;97804.13;5061837;28;19974;-45
2024/04/06 04:48:53;;;;;;;;;;;;;;;10.37;100.00;97806.00;5067874;28;20359;-46
2024/04/06 04:51:20;;;;;;;;;;;;;;;10.28;100.00;97801.31;5057162;28;20345;-45
2024/04/06 04:53:45;;;;;;;;;;;;;;;10.40;100.00;97810.16;5059263;28;19917;-45
2024/04/06 04:56:10;;;;;;;;;;;;;;;10.44;100.00;97807.31;5059709;28;19913;-47
2024/04/06 04:58:35;;;;;;;;;;;;;;;10.43;100.00;97810.00;5062526;28;19929;-48
2024/04/06 05:01:00;;;;;;;;;;;;;;;10.23;100.00;97800.78;5065129;28;19941;-48
2024/04/06 05:03:26;;;;;;;;;;;;;;;10.26;100.00;97803.19;5063898;28;19962;-44
2024/04/06 05:05:53;;;;;;;;;;;;;;;10.34;100.00;97810.56;5063920;28;19916;-44
2024/04/06 05:08:18;;;;;;;;;;;;;;;10.23;100.00;97815.53;5057376;28;19992;-44
2024/04/06 05:10:43;;;;;;;;;;;;;;;10.50;100.00;97825.16;5055210;28;20504;-44
2024/04/06 05:13:08;;;;;;;;;;;;;;;10.43;100.00;97820.41;5069635;28;20265;-45
2024/04/06 05:15:34;;;;;;;;;;;;;;;10.16;100.00;97827.22;5061588;28;19947;-45
2024/04/06 05:17:59;;;;;;;;;;;;;;;10.24;100.00;97825.84;5060115;28;19934;-45
2024/04/06 05:20:24;;;;;;;;;;;;;;;10.16;100.00;97822.81;5062411;28;20013;-45
2024/04/06 05:22:49;;;;;;;;;;;;;;;10.24;100.00;97820.66;5064086;28;19920;-45
2024/04/06 05:25:14;;;;;;;;;;;;;;;10.44;100.00;97822.94;5059192;28;19999;-45
2024/04/06 05:27:40;;;;;;;;;;;;;;;10.48;100.00;97824.41;5060421;28;20094;-45
2024/04/06 05:30:05;;;;;;;;;;;;;;;10.82;100.00;97833.66;5065192;28;19930;-45
2024/04/06 05:32:30;;;;;;;;;;;;;;;10.75;100.00;97833.19;5063114;28;19932;-46
2024/04/06 05:34:55;;;;;;;;;;;;;;;10.89;100.00;97835.78;5062961;28;19996;-45
2024/04/06 05:37:21;;;;;;;;;;;;;;;10.83;100.00;97836.19;5063782;28;19936;-45
2024/04/06 05:39:46;;;;;;;;;;;;;;;11.10;100.00;97834.53;5059930;28;19931;-46
2024/04/06 05:42:11;;;;;;;;;;;;;;;10.95;100.00;97840.63;5060412;28;19930;-46
2024/04/06 05:44:36;;;;;;;;;;;;;;;11.30;100.00;97836.75;5060570;28;19945;-45
2024/04/06 05:47:02;;;;;;;;;;;;;;;11.36;100.00;97846.75;5063190;28;19921;-45
2024/04/06 05:49:27;;;;;;;;;;;;;;;11.64;100.00;97846.78;5063638;28;19933;-45
2024/04/06 05:51:52;;;;;;;;;;;;;;;11.81;100.00;97843.91;5060362;28;19988;-46
2024/04/06 05:54:17;;;;;;;;;;;;;;;12.00;100.00;97840.06;5061338;28;19936;-47
2024/04/06 05:56:43;;;;;;;;;;;;;;;12.23;100.00;97835.94;5063214;28;19924;-47
2024/04/06 05:59:08;;;;;;;;;;;;;;;12.50;100.00;97840.16;5062356;28;20254;-47
2024/04/06 06:01:33;;;;;;;;;;;;;;;12.84;100.00;97836.16;5060838;28;20251;-48
2024/04/06 06:03:58;;;;;;;;;;;;;;;13.03;100.00;97839.22;5064671;28;20343;-47
2024/04/06 06:06:23;;;;;;;;;;;;;;;13.41;100.00;97832.16;5059963;28;19941;-48
2024/04/06 06:08:49;;;;;;;;;;;;;;;13.45;99.31;97833.63;5068967;28;19948;-47
2024/04/06 06:11:14;;;;;;;;;;;;;;;14.09;97.33;97836.75;5063361;28;19916;-48
2024/04/06 06:13:39;;;;;;;;;;;;;;;14.20;95.63;97836.84;5064277;28;19946;-48
2024/04/06 06:16:04;;;;;;;;;;;;;;;14.43;93.77;97845.63;5067029;28;20359;-49
2024/04/06 06:18:30;;;;;;;;;;;;;;;14.63;91.13;97842.34;5066839;28;20351;-50
2024/04/06 06:20:55;;;;;;;;;;;;;;;14.58;90.60;97841.84;5065680;28;20266;-46
2024/04/06 06:23:20;;;;;;;;;;;;;;;15.21;86.94;97839.56;5065603;28;20143;-44
2024/04/06 06:25:47;;;;;;;;;;;;;;;15.40;84.94;97837.22;5064408;28;19920;-47
2024/04/06 06:28:13;;;;;;;;;;;;;;;15.69;83.46;97827.91;5061624;28;19986;-45
2024/04/06 06:30:40;;;;;;;;;;;;;;;16.18;81.44;97826.47;5067542;28;20301;-45
2024/04/06 06:33:06;;;;;;;;;;;;;;;16.22;80.47;97824.44;5070200;28;19968;-46
2024/04/06 06:35:31;;;;;;;;;;;;;;;17.13;76.83;97817.47;5063648;28;19951;-47
2024/04/06 06:37:56;;;;;;;;;;;;;;;18.42;72.82;97821.78;5068012;28;19937;-47
2024/04/06 06:40:21;;;;;;;;;;;;;;;19.11;68.03;97825.81;5066765;28;20004;-47
2024/04/06 06:42:47;;;;;;;;;;;;;;;20.50;63.48;97837.81;5064310;28;20431;-47
2024/04/06 06:45:12;;;;;;;;;;;;;;;20.21;64.49;97839.84;5065193;28;20382;-47
2024/04/06 06:47:37;;;;;;;;;;;;;;;20.04;63.61;97831.84;5070389;28;20349;-47
2024/04/06 06:50:03;;;;;;;;;;;;;;;20.02;64.38;97826.72;5066717;28;20351;-46
2024/04/06 06:52:28;;;;;;;;;;;;;;;18.94;65.85;97834.50;5066357;28;20270;-47
2024/04/06 06:54:53;;;;;;;;;;;;;;;18.97;67.84;97836.84;5067145;28;19916;-48
2024/04/06 06:57:18;;;;;;;;;;;;;;;18.81;68.38;97839.22;5068769;28;20291;-47
2024/04/06 06:59:44;;;;;;;;;;;;;;;19.14;68.36;97841.41;5067519;28;19977;-48
2024/04/06 07:02:09;;;;;;;;;;;;;;;19.19;67.69;97851.50;5067954;28;19955;-45
2024/04/06 07:04:36;;;;;;;;;;;;;;;19.50;67.01;97848.53;5063095;28;19920;-44
2024/04/06 07:07:01;;;;;;;;;;;;;;;19.17;66.26;97854.28;5064576;28;20324;-45
2024/04/06 07:09:28;;;;;;;;;;;;;;;20.02;64.75;97861.06;5065421;28;19956;-48
2024/04/06 07:11:54;;;;;;;;;;;;;;;20.17;64.11;97864.09;5066782;28;19921;-47
2024/04/06 07:14:19;;;;;;;;;;;;;;;20.04;64.17;97853.81;5062931;28;19917;-47
2024/04/06 07:16:48;;;;;;;;;;;;;;;19.54;65.78;97854.34;5063415;28;20337;-46
2024/04/06 07:19:13;;;;;;;;;;;;;;;19.49;66.24;97856.56;5064947;28;19975;-47
2024/04/06 07:21:38;;;;;;;;;;;;;;;19.86;66.16;97854.75;5060695;28;19998;-48
2024/04/06 07:24:04;;;;;;;;;;;;;;;20.33;65.45;97859.78;5066115;28;19961;-47
2024/04/06 07:26:29;;;;;;;;;;;;;;;20.66;64.22;97861.78;5059283;28;19933;-46
2024/04/06 07:28:56;;;;;;;;;;;;;;;20.35;62.80;97846.41;5062817;28;19987;-47
2024/04/06 07:31:23;;;;;;;;;;;;;;;20.31;64.53;97861.75;5061231;28;19927;-49
2024/04/06 07:33:49;;;;;;;;;;;;;;;21.11;61.92;97856.38;5061927;28;19924;-47
2024/04/06 07:36:15;;;;;;;;;;;;;;;21.73;60.80;97870.19;5066351;28;19938;-57
2024/04/06 07:38:40;;;;;;;;;;;;;;;21.72;59.43;97860.56;5062142;28;19930;-47
2024/04/06 07:41:05;;;;;;;;;;;;;;;22.48;58.48;97862.19;5064088;28;19974;-48
2024/04/06 07:43:31;;;;;;;;;;;;;;;24.13;55.69;97865.81;5065960;28;20076;-47
2024/04/06 07:45:57;;;;;;;;;;;;;;;25.22;53.32;97868.09;5065497;28;20072;-47
2024/04/06 07:48:23;;;;;;;;;;;;;;;26.92;48.63;97872.03;5060894;28;19965;-48
2024/04/06 07:50:48;;;;;;;;;;;;;;;27.41;47.99;97877.41;5063084;28;19956;-48
2024/04/06 07:53:14;;;;;;;;;;;;;;;27.53;46.85;97886.56;5065288;28;19941;-48
2024/04/06 07:55:39;;;;;;;;;;;;;;;28.32;46.78;97886.03;5066919;28;20033;-48
2024/04/06 07:58:05;;;;;;;;;;;;;;;28.58;46.53;97883.47;5064493;28;20353;-49
2024/04/06 08:00:33;;;;;;;;;;;;;;;29.30;44.70;97881.75;5060501;28;20335;-49
2024/04/06 08:02:58;;;;;;;;;;;;;;;30.55;42.42;97882.16;5061336;28;19943;-49
2024/04/06 08:05:24;;;;;;;;;;;;;;;29.62;43.07;97872.91;5061236;28;20374;-49
2024/04/06 08:07:50;;;;;;;;;;;;;;;29.36;43.09;97865.66;5063420;28;19931;-48
2024/04/06 08:10:16;;;;;;;;;;;;;;;26.85;46.77;97873.00;5062650;28;20306;-47
2024/04/06 08:12:43;;;;;;;;;;;;;;;27.40;48.63;97873.09;5063027;28;19916;-47
2024/04/06 08:15:08;;;;;;;;;;;;;;;29.46;45.91;97865.25;5070546;28;20037;-48
2024/04/06 08:17:34;;;;;;;;;;;;;;;31.40;42.63;97878.94;5062515;28;20050;-49
2024/04/06 08:19:59;;;;;;;;;;;;;;;32.47;39.35;97879.09;5062000;28;20384;-47
2024/04/06 08:22:25;;;;;;;;;;;;;;;32.37;39.63;97878.81;5060814;28;19937;-48
2024/04/06 08:24:50;;;;;;;;;;;;;;;33.02;38.61;97882.53;5062584;28;19924;-48
2024/04/06 08:27:15;;;;;;;;;;;;;;;31.28;40.11;97875.31;5062876;28;20402;-48
2024/04/06 08:29:40;;;;;;;;;;;;;;;32.25;38.57;97869.84;5061314;28;19966;-48
2024/04/06 08:32:06;;;;;;;;;;;;;;;34.56;37.29;97866.50;5060449;28;19946;-48
2024/04/06 08:34:31;;;;;;;;;;;;;;;33.74;36.34;97861.41;5065075;28;20043;-48
2024/04/06 08:36:56;;;;;;;;;;;;;;;36.72;34.41;97866.19;5070782;28;20262;-50
2024/04/06 08:39:23;;;;;;;;;;;;;;;35.65;34.63;97866.03;5060859;28;20368;-48
2024/04/06 08:41:49;;;;;;;;;;;;;;;34.81;35.08;97858.88;5061757;28;19916;-48
2024/04/06 08:44:17;;;;;;;;;;;;;;;34.35;36.01;97848.22;5061364;28;20184;-50
2024/04/06 08:46:42;;;;;;;;;;;;;;;34.41;35.93;97844.53;5060875;28;20330;-48
2024/04/06 08:49:09;;;;;;;;;;;;;;;31.92;38.95;97841.59;5062439;28;19960;-48
2024/04/06 08:51:37;;;;;;;;;;;;;;;31.00;40.92;97845.28;5066459;28;20059;-48
2024/04/06 08:54:02;;;;;;;;;;;;;;;31.67;41.29;97843.50;5065237;28;19977;-48
2024/04/06 08:56:28;;;;;;;;;;;;;;;32.48;40.04;97852.97;5061133;28;20369;-46
2024/04/06 08:58:53;;;;;;;;;;;;;;;32.23;39.24;97846.88;5062801;28;20022;-47
2024/04/06 09:01:19;;;;;;;;;;;;;;;28.31;42.98;97841.53;5069271;28;20023;-47
2024/04/06 09:03:44;;;;;;;;;;;;;;;29.35;44.32;97841.72;5064767;28;19921;-47
2024/04/06 09:06:16;;;;;;;;;;;;;;;28.14;43.34;97832.19;5059751;28;19925;-48
2024/04/06 09:08:42;;;;;;;;;;;;;;;27.77;45.04;97833.44;5059272;28;19927;-47
2024/04/06 09:11:12;;;;;;;;;;;;;;;28.76;45.21;97835.47;5061464;28;20650;-46
2024/04/06 09:13:37;;;;;;;;;;;;;;;28.70;45.29;97828.25;5061817;28;19936;-47
2024/04/06 09:16:02;;;;;;;;;;;;;;;28.00;43.18;97817.09;5063568;28;19930;-46
2024/04/06 09:18:27;;;;;;;;;;;;;;;27.78;43.24;97821.72;5057426;28;19947;-47
2024/04/06 09:20:53;;;;;;;;;;;;;;;27.95;43.45;97814.19;5062564;28;19926;-49
2024/04/06 09:23:18;;;;;;;;;;;;;;;27.67;43.13;97814.25;5060064;28;19960;-47
2024/04/06 09:25:44;;;;;;;;;;;;;;;27.21;42.50;97809.59;5059789;28;20017;-47
2024/04/06 09:28:09;;;;;;;;;;;;;;;28.07;42.43;97813.44;5061587;28;19916;-47
2024/04/06 09:30:39;;;;;;;;;;;;;;;28.17;41.69;97802.31;5060953;28;19928;-49
2024/04/06 09:33:08;;;;;;;;;;;;;;;27.24;43.67;97798.50;5059523;28;19929;-46
2024/04/06 09:35:34;;;;;;;;;;;;;;;27.98;44.07;97797.75;5057462;28;19941;-46
2024/04/06 09:37:59;;;;;;;;;;;;;;;26.97;45.00;97793.94;5060790;28;19923;-49
2024/04/06 09:40:25;;;;;;;;;;;;;;;26.64;45.49;97795.50;5059903;28;19917;-47
2024/04/06 09:42:50;;;;;;;;;;;;;;;25.87;45.76;97796.25;5059271;28;19972;-48
2024/04/06 09:45:16;;;;;;;;;;;;;;;26.35;44.35;97790.25;5056449;28;20135;-46
2024/04/06 09:47:43;;;;;;;;;;;;;;;27.26;43.59;97788.47;5060661;28;19927;-46
2024/04/06 09:50:09;;;;;;;;;;;;;;;27.69;43.09;97792.63;5060119;28;19924;-47
2024/04/06 09:52:35;;;;;;;;;;;;;;;28.35;42.67;97794.56;5057671;28;20213;-47
2024/04/06 09:55:00;;;;;;;;;;;;;;;27.41;44.45;97783.81;5058120;28;19913;-47
2024/04/06 09:57:26;;;;;;;;;;;;;;;27.48;43.29;97784.69;5064209;28;19940;-46
2024/04/06 10:00:01;;;;;;;;;;;;;;;28.30;41.97;97787.13;5061511;28;19916;-48
2024/04/06 10:02:31;;;;;;;;;;;;;;;28.03;42.19;97789.91;5060964;28;20020;-47
2024/04/06 10:04:56;;;;;;;;;;;;;;;29.62;40.21;97784.34;5060225;28;20298;-47
2024/04/06 10:07:28;;;;;;;;;;;;;;;29.75;39.75;97777.06;5059888;28;20003;-47
2024/04/06 10:10:00;;;;;;;;;;;;;;;29.10;39.60;97779.00;5056244;28;19952;-48
2024/04/06 10:12:35;;;;;;;;;;;;;;;29.45;39.90;97777.75;5058241;28;19966;-48
2024/04/06 10:15:05;;;;;;;;;;;;;;;29.16;39.74;97778.19;5058931;28;19924;-47
2024/04/06 10:17:30;;;;;;;;;;;;;;;29.04;38.85;97769.16;5055201;28;19942;-47
2024/04/06 10:19:56;;;;;;;;;;;;;;;28.16;39.09;97774.72;5060065;28;20162;-47
2024/04/06 10:22:24;;;;;;;;;;;;;;;29.28;37.33;97773.84;5059658;28;19962;-48
2024/04/06 10:24:54;;;;;;;;;;;;;;;30.70;36.92;97769.00;5057662;28;19945;-47
2024/04/06 10:27:24;;;;;;;;;;;;;;;29.37;36.94;97770.75;5066260;28;19917;-48
2024/04/06 10:29:50;;;;;;;;;;;;;;;28.79;37.31;97765.41;5056532;28;19920;-48
2024/04/06 10:32:16;;;;;;;;;;;;;;;28.67;38.48;97773.22;5058876;28;19920;-47
2024/04/06 10:34:41;;;;;;;;;;;;;;;29.09;38.31;97766.66;5056963;28;19940;-47
2024/04/06 10:37:06;;;;;;;;;;;;;;;30.16;37.01;97761.44;5066620;28;19935;-47
2024/04/06 10:39:32;;;;;;;;;;;;;;;29.70;35.81;97757.25;5057884;28;19950;-47
2024/04/06 10:41:57;;;;;;;;;;;;;;;30.61;34.98;97762.19;5057479;28;20051;-47
2024/04/06 10:44:22;;;;;;;;;;;;;;;30.02;36.01;97753.63;5061364;28;19944;-47
2024/04/06 10:46:47;;;;;;;;;;;;;;;30.44;35.82;97755.72;5059867;28;20282;-48
2024/04/06 10:49:13;;;;;;;;;;;;;;;30.81;35.31;97749.44;5061022;28;20326;-48
2024/04/06 10:51:38;;;;;;;;;;;;;;;30.70;35.09;97748.28;5059126;28;20377;-47
2024/04/06 10:54:05;;;;;;;;;;;;;;;29.99;34.52;97743.31;5066773;28;20315;-46
2024/04/06 10:56:31;;;;;;;;;;;;;;;29.99;35.43;97736.06;5066655;28;20011;-47
2024/04/06 10:58:56;;;;;;;;;;;;;;;29.82;34.57;97745.66;5065248;28;20043;-47
2024/04/06 11:01:26;;;;;;;;;;;;;;;30.74;33.56;97744.16;5062670;28;19985;-47
2024/04/06 11:03:52;;;;;;;;;;;;;;;32.07;32.51;97745.88;5060524;28;20289;-47
2024/04/06 11:06:17;;;;;;;;;;;;;;;30.66;31.97;97751.66;5061443;28;19931;-48
2024/04/06 11:08:43;;;;;;;;;;;;;;;30.21;30.85;97731.25;5060778;28;19935;-47
2024/04/06 11:11:11;;;;;;;;;;;;;;;32.48;30.87;97743.25;5062250;28;19993;-47
2024/04/06 11:13:39;;;;;;;;;;;;;;;32.87;30.74;97742.66;5064526;28;19938;-47
2024/04/06 11:16:04;;;;;;;;;;;;;;;33.37;29.31;97741.19;5061105;28;19976;-48
2024/04/06 11:18:38;;;;;;;;;;;;;;;33.39;28.68;97738.25;5060654;28;19920;-49
2024/04/06 11:21:06;;;;;;;;;;;;;;;33.19;30.89;97732.38;5063419;28;20287;-47
2024/04/06 11:23:32;;;;;;;;;;;;;;;31.58;30.50;97729.88;5066019;28;19945;-45
2024/04/06 11:26:00;;;;;;;;;;;;;;;31.32;32.25;97731.22;5064488;28;20026;-47
2024/04/06 11:28:26;;;;;;;;;;;;;;;31.53;30.58;97729.72;5062779;28;19927;-47
2024/04/06 11:30:53;;;;;;;;;;;;;;;31.21;31.45;97726.56;5067764;28;20441;-46
2024/04/06 11:33:19;;;;;;;;;;;;;;;30.61;31.52;97722.72;5063460;28;19927;-47
2024/04/06 11:35:45;;;;;;;;;;;;;;;31.02;32.28;97720.31;5058783;28;19938;-46
2024/04/06 11:38:11;;;;;;;;;;;;;;;30.81;31.93;97711.81;5060360;28;19935;-47
2024/04/06 11:40:36;;;;;;;;;;;;;;;31.53;31.20;97718.97;5061791;28;19937;-46
2024/04/06 11:43:02;;;;;;;;;;;;;;;31.52;30.31;97707.59;5055553;28;19916;-46
2024/04/06 11:45:27;;;;;;;;;;;;;;;30.63;31.65;97706.34;5057145;28;19920;-47
2024/04/06 11:47:54;;;;;;;;;;;;;;;31.27;32.02;97717.59;5060476;28;19917;-46
2024/04/06 11:50:19;;;;;;;;;;;;;;;31.41;30.15;97716.41;5061417;28;19913;-49
2024/04/06 11:52:44;;;;;;;;;;;;;;;32.35;31.03;97703.00;5055438;28;20234;-48
2024/04/06 11:55:10;;;;;;;;;;;;;;;31.37;29.47;97707.16;5057675;28;19931;-46
2024/04/06 11:57:36;;;;;;;;;;;;;;;31.36;30.24;97706.34;5058285;28;19925;-46
2024/04/06 12:00:03;;;;;;;;;;;;;;;31.24;30.75;97705.41;5061870;28;20027;-46
2024/04/06 12:02:28;;;;;;;;;;;;;;;31.03;30.81;97707.66;5063143;28;20045;-46
2024/04/06 12:04:53;;;;;;;;;;;;;;;31.35;31.07;97703.84;5061666;28;19925;-46
2024/04/06 12:07:18;;;;;;;;;;;;;;;31.25;30.41;97708.94;5059109;28;19913;-47
2024/04/06 12:09:44;;;;;;;;;;;;;;;30.65;31.21;97688.97;5058684;28;19943;-46
2024/04/06 12:12:11;;;;;;;;;;;;;;;29.73;31.64;97689.75;5060391;28;19934;-48
2024/04/06 12:14:36;;;;;;;;;;;;;;;30.25;31.10;97694.84;5055998;28;20415;-46
2024/04/06 12:17:01;;;;;;;;;;;;;;;30.47;31.23;97693.44;5055596;28;20015;-46
2024/04/06 12:19:27;;;;;;;;;;;;;;;31.57;31.41;97697.00;5055117;28;19921;-46
2024/04/06 12:21:52;;;;;;;;;;;;;;;31.85;30.23;97696.22;5058060;28;19912;-46
2024/04/06 12:24:18;;;;;;;;;;;;;;;31.80;30.86;97688.00;5057780;28;19921;-46
2024/04/06 12:26:43;;;;;;;;;;;;;;;31.74;30.96;97682.72;5055110;28;19923;-46
2024/04/06 12:29:08;;;;;;;;;;;;;;;31.06;29.80;97677.66;5064023;28;19954;-47
2024/04/06 12:31:34;;;;;;;;;;;;;;;31.31;30.25;97675.78;5056708;28;19941;-46
2024/04/06 12:33:59;;;;;;;;;;;;;;;31.50;29.70;97682.78;5055644;28;19994;-46